Date,TemperatureHighF,TemperatureAvgF,TemperatureLowF,DewpointHighF,DewpointAvgF,DewpointLowF,HumidityHigh,HumidityAvg,HumidityLow,PressureMaxIn,PressureMinIn,WindSpeedMaxMPH,WindSpeedAvgMPH,GustSpeedMaxMPH,PrecipitationSumIn
2013-1-1,36,33,31,33,29,23,90,83,63,30.23,30.08,10,2,0,0.06
2013-1-2,32,28,23,28,21,16,89,75,57,30.32,30.13,18,3,0,0.04
2013-1-3,35,26,18,22,18,0,84,71,55,30.35,30.27,22,5,0,0.04
2013-1-4,30,26,-17,21,19,-27,77,73,69,30.42,30.33,22,5,0,0.04
2013-1-5,39,31,23,27,21,17,83,68,52,30.50,30.32,19,4,0,0.04
2013-1-6,37,35,32,28,27,-23,81,72,7,30.35,30.20,16,3,0,0.04
2013-1-7,39,30,25,27,23,-26,84,74,59,30.56,30.33,14,3,0,0.04
2013-1-8,49,35,25,31,24,20,86,66,42,30.54,30.46,22,4,0,0.04
2013-1-9,46,39,31,42,32,22,90,74,64,30.62,30.48,7,3,0,0.04
2013-1-10,48,40,33,39,33,-15,89,76,63,30.71,30.54,61,6,0,0.04
2013-1-11,45,42,39,42,38,32,92,84,67,30.54,30.27,8,2,0,0.16
2013-1-12,69,54,43,60,50,41,95,85,66,30.36,30.27,7,1,0,0.04
2013-1-13,64,58,52,56,52,-19,91,81,70,30.29,30.19,9,2,0,0.10
2013-1-14,56,49,0,53,46,-6,100,89,84,30.42,30.22,8,2,1,0.59
2013-1-15,41,39,36,40,37,4,94,93,92,30.40,30.19,7,2,0,2.08
2013-1-16,43,38,36,41,36,0,95,94,93,30.21,30.06,12,1,0,0.74
2013-1-17,37,33,29,36,29,0,94,85,73,30.31,30.16,22,2,0,0.00
2013-1-18,38,30,22,25,20,12,85,68,46,30.57,30.31,18,4,0,0.14
2013-1-19,49,35,22,31,23,18,85,64,43,30.51,30.21,14,4,0,0.00
2013-1-20,45,38,0,31,23,13,71,55,44,30.23,30.15,21,4,0,3.81
2013-1-21,38,32,25,19,15,0,60,49,42,30.22,30.04,18,6,0,0.00
2013-1-22,38,38,38,17,17,17,43,43,43,30.04,30.04,8,8,0,0.00
2013-1-23,38,38,38,17,17,17,43,43,43,30.04,30.04,8,8,0,0.00
2013-1-24,38,38,38,17,17,17,43,43,43,30.04,30.04,8,8,0,0.00
2013-1-25,38,38,38,17,17,17,43,43,43,30.04,30.04,8,8,0,0.00
2013-1-26,38,38,38,17,17,17,43,43,43,30.04,30.04,8,8,0,0.00
2013-1-27,38,38,38,17,17,17,43,43,43,30.04,30.04,8,8,0,0.00
2013-4-17,68,62,0,100,56,54,100,73,66,30.38,30.34,0,0,0,3.81
2013-4-18,72,66,60,60,56,51,86,70,52,30.36,30.16,15,3,0,0.00
2013-4-19,67,62,50,59,55,46,89,79,68,30.17,29.89,21,4,0,0.45
2013-4-20,52,46,38,30,27,23,66,46,36,30.48,30.29,20,4,20,4.26
2013-4-21,58,44,0,34,28,22,70,54,38,30.63,30.47,9,3,9,4.26
2013-4-22,62,47,33,35,29,23,70,50,30,30.60,30.43,8,3,8,0.00
2013-4-23,69,52,35,43,35,25,75,54,30,30.46,30.25,10,3,10,0.00
2013-4-24,73,57,42,53,46,37,82,67,45,30.33,30.09,15,4,15,0.06
2013-4-25,58,45,32,37,30,23,82,58,27,30.50,30.32,14,4,14,0.00
2013-4-26,64,50,36,38,31,24,68,49,34,30.59,30.48,10,2,10,0.00
2013-4-27,64,55,45,44,37,28,68,52,44,30.53,30.42,10,3,10,0.00
2013-4-28,54,51,48,48,46,43,92,83,68,30.42,30.24,13,3,13,0.83
2013-4-29,66,54,47,55,49,45,92,85,65,30.26,30.18,8,3,8,0.06
2013-4-30,72,60,52,57,52,48,92,77,54,30.42,30.23,8,2,8,0.00
2013-5-1,71,60,52,54,48,39,85,66,44,30.52,30.41,11,3,11,0.00
2013-5-2,72,60,51,51,45,40,72,59,45,30.53,30.43,10,3,10,0.00
2013-5-3,66,55,43,46,43,26,83,65,40,30.47,30.38,12,3,12,0.00
2013-5-4,67,53,41,45,40,34,77,62,38,30.39,30.27,14,4,14,0.00
2013-5-5,65,53,44,45,37,26,79,57,31,30.32,30.20,16,4,16,0.00
2013-5-6,58,52,48,54,48,44,92,87,79,30.24,30.13,14,4,14,3.08
2013-5-7,54,50,47,52,48,46,93,92,91,30.18,30.09,12,2,12,1.43
2013-5-8,60,51,47,51,47,44,94,87,72,30.22,30.12,7,1,7,0.45
2013-5-9,71,59,47,57,50,44,94,74,48,30.30,30.19,14,4,14,0.00
2013-5-10,76,62,51,58,53,46,88,74,48,30.31,30.17,17,3,17,0.31
2013-5-12,49,43,42,31,30,30,62,59,47,30.27,30.22,6,2,6,10.83
2013-5-13,51,42,33,35,31,26,81,66,49,30.35,30.23,15,3,15,0.00
2013-5-14,66,48,30,42,34,27,89,63,34,30.39,30.20,10,3,10,0.00
2013-5-15,83,69,55,59,51,40,77,55,34,30.25,30.13,15,4,15,0.00
2013-5-16,76,66,57,60,53,48,87,64,52,30.27,30.16,16,3,16,0.14
2013-5-17,72,61,52,63,56,49,91,84,68,30.36,30.25,5,2,5,0.08
2013-5-18,73,64,58,64,59,55,93,85,70,30.39,30.30,6,2,6,0.08
2013-5-19,68,63,60,63,60,57,92,89,82,30.36,30.28,6,2,6,0.00
2013-5-20,74,65,59,67,62,56,93,87,74,30.34,30.25,6,1,6,0.31
2013-5-21,82,69,60,68,62,57,94,79,56,30.30,30.17,5,2,5,0.00
2013-5-22,81,66,58,66,60,54,91,82,56,30.26,30.14,7,3,7,0.45
2013-5-23,76,64,59,64,58,53,92,82,51,30.18,30.05,14,2,14,0.10
2013-5-24,58,48,42,53,41,35,87,77,56,30.41,30.10,18,4,18,0.00
2013-5-25,59,47,34,39,34,28,80,61,37,30.46,30.39,15,4,15,0.00
2013-5-26,66,53,40,40,35,31,83,55,28,30.46,30.40,10,3,10,0.10
2013-5-27,68,55,41,53,43,32,76,64,56,30.48,30.36,6,2,6,0.00
2013-5-28,80,67,52,62,55,48,88,68,44,30.43,30.32,10,2,10,0.00
2013-5-29,82,71,59,62,58,54,87,66,46,30.45,30.36,8,2,8,0.00
2013-5-30,85,72,58,65,59,54,87,66,39,30.49,30.39,9,3,9,0.00
2013-5-31,83,71,58,63,58,53,87,66,48,30.44,30.32,8,2,8,0.00
2013-6-1,70,64,62,60,57,56,84,78,66,30.34,30.31,1,1,3,0.00
2013-6-2,71,67,65,60,60,60,100,89,85,30.18,30.18,3,2,3,12.11
2013-6-3,72,66,58,63,58,53,100,76,65,30.26,30.15,8,2,0,0.00
2013-6-4,76,63,51,59,53,48,91,73,49,30.35,30.25,7,2,0,0.00
2013-6-5,76,67,58,64,59,52,89,76,65,30.37,30.25,9,2,0,0.00
2013-6-6,69,64,0,100,61,58,100,88,82,30.18,30.08,5,2,0,0.61
2013-6-7,70,64,58,67,61,54,93,90,85,30.11,29.95,9,2,0,1.16
2013-6-8,76,64,56,62,56,53,93,77,51,30.35,30.10,8,2,0,0.00
2013-6-9,82,69,58,65,59,53,90,75,44,30.42,30.30,9,2,0,14.31
2013-6-10,74,67,61,69,62,56,93,85,73,30.32,30.12,16,3,0,0.82
2013-6-11,73,65,60,64,60,56,92,84,69,30.23,30.13,12,3,0,0.02
2013-6-12,82,72,62,72,65,59,90,80,64,30.25,30.15,11,2,0,0.02
2013-6-13,74,67,59,100,63,29,100,87,77,30.16,29.93,18,2,0,16.69
2013-6-14,71,62,0,58,54,-17,87,76,61,30.30,30.07,22,3,0,16.69
2013-6-15,75,63,51,60,54,48,92,75,52,30.38,30.29,8,2,0,0.00
2013-6-16,76,65,55,66,59,51,91,82,68,30.32,30.25,22,7,0,0.14
2013-6-17,81,70,62,68,63,42,93,80,27,30.29,30.18,8,3,0,0.00
2013-6-18,72,65,60,65,61,56,93,87,75,30.22,30.11,6,4,0,1.41
2013-6-19,79,66,56,65,59,16,93,78,53,30.38,30.19,22,2,0,0.00
2013-6-20,80,69,62,66,61,58,91,77,52,30.48,30.38,11,2,0,0.00
2013-6-21,81,71,61,67,62,57,90,76,59,30.51,30.43,9,2,0,0.00
2013-6-22,82,69,57,64,59,54,88,72,51,30.51,30.38,6,3,0,0.00
2013-6-24,81,74,64,69,65,61,89,75,61,30.46,30.35,8,2,0,0.06
2013-6-25,83,71,61,70,64,29,93,81,61,30.40,30.26,7,3,0,0.00
2013-6-26,79,71,66,71,66,62,92,83,69,30.28,30.17,8,2,0,0.00
2013-6-27,73,68,65,67,64,62,92,88,78,30.18,30.01,12,2,0,0.10
2013-6-28,80,72,0,69,62,43,93,74,51,30.03,29.87,14,3,0,0.61
2013-6-29,77,67,57,66,60,53,88,78,61,30.00,29.89,8,1,0,0.53
2013-6-30,84,71,60,67,62,56,91,75,48,30.13,29.99,8,2,0,0.53
2013-7-1,80,70,64,69,64,59,90,81,65,30.24,30.10,8,2,0,0.53
2013-7-2,79,70,66,69,65,32,91,84,70,30.40,30.22,8,2,0,0.53
2013-7-3,76,69,65,70,65,62,92,88,79,30.49,30.38,6,2,0,0.61
2013-7-4,81,72,65,71,66,63,93,84,68,30.51,30.42,9,2,0,0.53
2013-7-5,82,72,0,72,67,62,91,82,68,30.50,30.41,7,2,0,20.07
2013-7-6,83,74,64,71,65,60,90,76,56,30.48,30.38,8,2,0,0.00
2013-7-7,78,68,63,70,64,30,91,86,72,30.42,30.33,8,1,0,0.24
2013-7-8,79,69,63,68,63,58,93,83,65,30.45,30.37,9,3,0,0.22
2013-7-9,84,73,64,71,66,61,91,79,60,30.43,30.33,7,3,0,0.22
2013-7-10,79,71,67,72,66,63,92,87,77,30.36,30.22,13,2,0,21.25
2013-7-11,77,69,64,70,65,61,93,87,77,30.24,30.17,6,1,0,0.75
2013-7-12,77,67,61,66,62,55,92,84,66,30.34,30.19,22,4,0,0.75
2013-7-13,64,63,62,61,59,58,90,88,86,30.38,30.32,33,8,0,0.00
2013-7-14,82,74,0,100,66,63,100,74,65,30.58,30.53,5,3,0,0.00
2013-7-15,87,74,65,72,66,61,90,77,56,30.61,30.53,5,3,0,0.00
2013-7-16,88,74,65,73,67,32,90,80,56,30.60,30.51,17,3,0,0.61
2013-7-17,88,74,65,76,68,30,92,84,63,30.56,30.44,6,1,0,0.41
2013-7-18,87,73,65,76,68,62,91,85,67,30.49,30.37,6,2,0,0.02
2013-7-19,84,73,67,76,68,0,91,85,72,30.39,30.25,8,2,0,0.02
2013-7-20,83,73,64,72,67,62,91,83,68,30.28,30.19,7,3,0,0.14
2013-7-21,82,70,-21,72,66,-24,91,85,68,30.29,30.21,6,3,0,0.02
2013-7-22,80,71,65,70,66,62,91,85,71,30.25,30.09,9,2,0,0.24
2013-7-23,80,71,66,68,65,38,90,81,63,30.12,30.05,10,3,0,0.04
2013-7-24,80,70,63,66,63,58,90,79,58,30.20,30.04,10,2,0,0.00
2013-7-25,76,66,58,61,57,39,88,74,27,30.33,30.18,7,2,0,0.00
2013-7-26,79,66,53,64,58,50,89,75,50,30.36,30.28,9,2,0,0.00
2013-7-27,70,66,64,66,62,60,90,87,81,30.30,30.18,6,2,0,0.65
2013-7-28,76,67,61,64,61,55,91,81,63,30.30,30.17,8,2,0,0.06
2013-7-29,72,62,51,58,54,48,90,76,58,30.47,30.30,7,2,0,0.00
2013-7-30,77,64,51,61,55,48,90,75,54,30.49,30.41,6,2,0,0.00
2013-7-31,67,62,60,62,58,56,91,87,80,30.42,30.26,5,4,114,0.60
2013-8-1,76,66,0,67,62,30,91,85,70,30.26,30.17,8,3,8,0.17
2013-8-2,77,66,-14,64,59,-16,90,77,56,30.32,30.21,9,2,9,0.17
2013-8-3,78,66,60,67,60,29,89,81,59,30.30,30.23,7,1,7,0.17
2013-8-4,74,65,58,60,57,52,90,76,58,30.34,30.23,9,2,9,0.17
2013-8-5,77,64,52,62,56,48,89,77,56,30.37,30.26,8,2,8,0.17
2013-8-6,80,68,62,66,61,58,88,79,60,30.28,30.22,7,1,7,0.17
2013-8-7,77,70,65,70,65,61,90,85,77,30.32,30.27,7,2,7,0.20
2013-8-8,76,70,66,71,66,63,90,89,83,30.31,30.27,6,1,6,0.59
2013-8-9,81,73,68,72,68,30,90,84,70,30.32,30.25,10,2,10,0.17
2013-8-10,80,72,68,70,66,64,89,84,69,30.37,30.30,57,10,57,0.33
2013-8-11,75,72,68,70,68,39,89,87,84,30.39,30.32,57,39,57,0.24
2013-8-12,80,71,65,70,65,61,89,82,60,30.36,30.24,57,16,57,0.17
2013-8-13,76,68,62,68,63,58,89,85,70,30.24,30.11,57,20,57,0.29
2013-8-14,69,61,52,58,52,25,89,75,56,30.32,30.18,57,26,57,0.17
2013-8-15,71,64,0,100,54,49,100,69,57,30.41,30.33,57,24,0,0.00
2013-8-16,75,61,0,60,53,46,89,74,55,30.43,30.35,57,38,0,0.00
2013-8-17,74,61,52,61,55,28,89,81,64,30.47,30.41,57,32,0,0.00
2013-8-18,69,63,58,64,59,54,90,87,82,30.47,30.40,57,40,0,0.12
2013-8-19,76,67,62,68,62,58,90,85,74,30.43,30.34,57,38,0,0.04
2013-8-20,82,69,59,69,62,55,90,79,53,30.46,30.38,57,45,0,0.00
2013-8-21,79,69,63,70,64,60,89,84,71,30.48,30.38,57,40,0,0.51
2013-8-22,78,67,0,70,62,-18,90,84,73,30.42,30.30,57,20,0,0.00
2013-8-23,77,67,60,69,62,55,90,83,68,30.40,30.27,57,30,0,0.02
2013-8-24,78,64,53,62,56,50,90,77,53,30.56,30.40,57,46,0,0.00
2013-8-25,76,64,54,62,56,50,89,76,56,30.63,30.52,57,27,0,0.00
2013-8-26,78,64,52,64,57,49,89,77,57,30.56,30.37,57,34,0,0.00
2013-8-27,80,70,61,69,63,40,89,81,65,30.38,30.26,57,35,0,0.00
2013-8-28,80,72,68,72,67,64,90,85,69,30.30,30.15,57,19,0,0.78
2013-8-29,70,68,68,66,65,33,89,89,89,30.22,30.17,57,42,0,0.00
2013-8-31,70,65,64,66,62,61,100,90,89,30.22,30.15,28,3,0,27.88
2013-9-1,76,68,64,69,64,33,90,88,79,30.18,30.10,57,25,0,0.00
2013-9-2,81,71,64,70,65,0,90,81,27,30.17,30.10,57,28,0,0.00
2013-9-3,76,68,58,66,60,54,90,78,57,30.28,30.12,57,25,0,0.00
2013-9-4,76,62,52,64,56,37,90,80,61,30.38,30.28,57,29,0,0.00
2013-9-5,76,62,52,63,56,48,90,79,61,30.41,30.36,57,34,0,0.00
2013-9-6,76,64,54,62,56,24,90,77,55,30.45,30.35,57,43,0,0.00
2013-9-7,78,64,53,62,54,50,89,74,45,30.37,30.25,57,39,0,0.00
2013-9-8,81,66,56,67,59,51,87,77,60,30.31,30.22,57,31,0,0.00
2013-9-9,79,68,61,69,63,57,90,83,71,30.42,30.30,57,24,0,0.00
2013-9-10,85,72,63,71,66,30,90,80,63,30.49,30.41,57,39,0,0.00
2013-9-11,84,72,64,73,66,60,89,81,60,30.48,30.35,57,38,0,0.00
2013-9-12,79,69,63,71,64,60,90,86,67,30.36,30.13,57,41,0,0.12
2013-9-13,67,61,51,60,53,45,90,76,53,30.23,30.07,57,19,0,0.02
2013-9-14,59,48,43,48,44,23,89,84,66,30.33,30.22,57,45,0,0.00
2013-9-15,71,64,0,100,56,51,100,72,61,30.44,30.34,57,7,0,0.00
2013-9-16,63,57,49,58,53,46,90,85,78,30.48,30.34,57,40,0,0.00
2013-9-17,68,55,44,56,48,42,91,79,59,30.56,30.47,57,29,0,0.00
2013-9-18,66,56,46,57,50,43,90,83,72,30.50,30.38,57,44,0,0.04
2013-9-19,69,61,10,64,58,7,90,88,83,30.41,30.31,57,42,0,0.06
2013-9-20,73,65,62,68,62,56,90,89,83,30.33,30.20,57,42,0,0.41
2013-9-21,66,62,55,63,59,52,91,90,87,30.20,29.98,57,12,0,0.63
2013-9-22,67,55,47,58,50,44,91,82,62,30.21,30.05,57,17,0,0.00
2013-9-23,69,53,42,56,47,36,90,80,59,30.30,30.20,63,42,0,0.00
2013-9-24,73,60,51,61,54,48,90,81,64,30.32,30.19,57,25,0,0.00
2013-9-25,64,59,0,100,57,54,100,87,82,30.18,30.13,57,41,0,0.02
2013-9-26,74,61,52,62,55,49,90,81,62,30.31,30.16,57,43,0,0.00
2013-9-27,71,56,0,100,51,44,100,80,60,30.45,30.30,57,35,0,0.00
2013-9-28,66,58,51,57,52,22,89,81,67,30.49,30.41,57,11,0,0.00
2013-9-29,70,57,46,57,50,28,90,79,62,30.42,30.27,57,34,0,0.00
2013-9-30,68,58,48,59,52,45,89,82,70,30.32,30.25,57,37,0,0.00
2013-10-1,73,60,52,62,54,22,90,81,27,30.38,30.29,57,45,0,0.00
2013-10-2,75,61,50,63,54,47,90,80,58,30.41,30.32,57,39,0,0.00
2013-10-3,75,63,53,64,56,20,90,80,63,30.40,30.32,57,40,0,0.00
2013-10-4,67,58,0,100,55,52,100,87,84,30.38,30.34,57,52,0,29.19
2013-10-5,80,66,57,66,60,54,90,79,58,30.41,30.30,57,42,0,0.00
2013-10-6,80,67,58,66,59,55,90,77,55,30.31,30.15,57,27,0,0.00
2013-10-7,66,58,46,60,51,41,90,80,67,30.31,30.04,57,8,0,0.85
2013-10-8,68,50,40,50,42,11,90,76,50,30.46,30.31,57,29,0,0.00
2013-10-9,68,51,42,46,40,-25,86,70,40,30.48,30.39,57,41,0,0.00
2013-10-10,68,59,49,61,54,2,89,85,71,30.40,30.24,57,44,0,0.08
2013-10-11,66,58,56,60,55,53,91,88,78,30.24,30.19,57,46,0,0.00
2013-10-12,69,65,0,100,61,58,100,83,78,30.33,30.28,57,33,0,0.00
2013-10-16,61,59,59,54,54,54,84,83,80,30.22,30.20,57,18,57,30.15
2013-10-17,62,57,48,59,54,19,90,88,84,30.20,30.02,57,36,57,0.20
2013-10-18,63,51,43,45,41,14,84,72,51,30.27,30.17,57,21,57,0.00
2013-10-19,57,48,42,51,43,37,89,84,64,30.20,30.05,57,27,57,0.02
2013-10-20,57,44,34,41,35,30,86,73,53,30.29,30.16,57,6,57,0.00
2013-10-21,64,50,35,45,38,30,88,66,45,30.33,30.16,57,12,57,0.00
2013-10-22,53,47,41,46,41,37,86,78,66,30.17,30.03,57,6,57,0.00
2013-10-23,46,39,34,41,35,30,90,86,75,30.15,29.93,57,10,57,0.10
2013-10-24,39,34,28,33,29,-2,89,83,72,30.33,30.15,57,8,57,0.06
2013-10-25,39,33,27,30,26,-22,88,78,66,30.50,30.32,71,7,71,0.00
2013-10-26,50,37,23,33,26,0,88,68,45,30.47,30.19,57,7,57,0.00
2013-10-27,57,47,40,39,35,31,77,63,48,30.31,30.20,57,4,57,0.00
2013-10-28,58,45,34,46,39,30,88,79,64,30.46,30.30,57,19,57,0.12
2013-10-29,63,53,46,53,48,26,91,82,67,30.53,30.44,57,40,57,0.00
2013-10-30,57,54,51,54,50,-16,91,88,79,30.47,30.36,57,16,57,0.24
2013-10-31,63,57,53,58,53,5,91,86,74,30.38,29.95,57,9,57,0.00
2013-11-1,64,64,62,57,57,55,80,78,77,29.96,29.86,57,42,57,0.00
2013-11-4,50,42,0,100,30,27,100,61,51,30.55,30.16,57,5,0,0.00
2013-11-5,52,42,32,42,32,25,85,68,43,30.33,30.21,57,4,0,0.00
2013-11-6,66,54,46,53,47,42,88,77,58,30.23,29.92,57,8,0,0.00
2013-11-7,52,45,34,49,39,24,90,79,69,29.96,29.80,57,19,0,0.16
2013-11-8,38,33,32,27,25,24,77,71,69,30.05,29.95,12,3,0,0.00
2013-11-9,57,49,0,100,27,22,100,41,32,29.97,29.93,57,4,0,26.37
2013-11-10,54,43,33,36,28,23,73,56,38,30.09,29.91,57,4,0,0.00
2013-11-11,59,44,29,34,25,21,78,52,26,30.11,29.89,57,4,0,0.00
2013-11-12,48,34,24,34,23,15,78,65,36,30.19,29.84,15,4,0,0.00
2013-11-13,34,26,21,18,16,14,77,66,49,30.27,30.17,16,5,0,0.00
2013-11-14,53,35,20,26,19,14,78,55,31,30.19,30.05,18,5,0,0.00
2013-11-15,58,43,29,39,26,14,83,51,30,30.09,29.98,11,3,0,0.19
2013-11-16,62,50,42,52,45,38,90,83,68,30.09,30.00,7,2,0,0.02
2013-11-17,64,55,50,55,51,47,90,84,71,30.02,29.63,11,3,0,0.22
2013-11-18,56,49,38,53,36,27,90,63,37,29.85,29.65,21,5,0,0.24
2013-11-19,42,34,0,100,25,22,100,68,56,30.09,29.84,19,4,0,27.05
2013-11-20,48,36,27,28,23,20,74,60,41,30.22,30.08,12,3,0,0.00
2013-11-21,49,40,31,40,33,22,82,76,64,30.27,30.15,6,1,0,0.00
2013-11-22,55,50,45,52,46,40,91,87,82,30.15,29.93,15,2,0,0.04
2013-11-23,46,36,22,42,29,13,89,77,61,30.03,29.93,20,5,20,27.09
2013-11-24,23,18,13,16,6,4,84,61,48,30.21,30.01,24,7,24,0.00
2013-11-25,40,26,12,23,13,5,75,59,38,30.22,30.05,20,6,57,0.00
2013-11-26,41,36,29,39,32,22,91,88,74,30.05,29.48,15,3,57,2.08
2013-11-27,40,27,0,38,22,12,91,82,74,29.91,29.47,27,6,57,0.00
2013-11-28,34,23,17,22,16,12,82,73,60,30.12,29.91,18,4,57,0.02
2013-11-29,30,29,28,21,20,20,70,69,66,30.34,30.32,14,5,14,29.19
2013-11-30,39,30,23,27,21,17,80,69,59,30.33,30.08,14,4,57,0.02
2013-12-1,48,35,22,32,26,0,87,69,52,30.08,29.81,16,5,57,0.02
2013-12-2,51,43,38,39,34,30,79,71,62,29.81,29.65,6,2,6,0.02
2013-12-3,50,43,37,42,37,31,84,78,71,29.79,29.66,6,1,6,0.02
2013-12-4,63,50,41,50,44,37,90,79,63,29.87,29.76,7,2,7,0.02
2013-12-5,58,51,44,52,48,41,91,88,81,29.90,29.80,3,3,3,0.04
2013-12-6,56,47,37,53,45,35,92,91,90,29.93,29.74,18,3,18,1.37
2013-12-7,37,32,28,35,29,24,92,87,81,30.22,29.92,18,4,18,0.02
2013-12-8,32,29,28,30,26,24,91,88,84,30.20,29.95,20,5,20,0.37
2013-12-9,41,34,31,38,32,28,92,91,89,29.96,29.85,21,9,21,0.43
2013-12-10,32,28,24,30,24,15,92,84,69,30.02,29.75,17,5,17,0.02
2013-12-11,38,28,18,24,18,14,83,68,52,30.14,30.01,17,4,17,0.20
2013-12-12,28,22,0,100,11,6,100,61,44,30.15,30.03,17,6,17,0.02
2013-12-13,38,28,18,17,14,9,68,54,41,30.07,29.99,17,5,0,0.02
2013-12-14,34,32,29,30,27,17,90,83,55,30.04,29.53,14,4,0,0.22
2013-12-15,35,30,27,33,26,22,91,86,79,29.81,29.51,18,5,0,0.04
2013-12-16,35,29,0,100,25,22,100,83,79,29.90,29.79,15,4,0,0.06
2013-12-17,39,34,28,34,30,25,91,86,81,29.86,29.72,22,5,0,0.06
2013-12-18,34,28,23,25,20,17,87,72,63,30.01,29.84,30,5,0,0.04
2013-12-19,55,39,25,32,25,17,75,57,38,30.03,29.94,15,4,0,0.00
2013-12-20,54,45,36,42,31,24,74,59,46,29.96,29.86,3,1,0,0.00
2013-12-21,62,54,46,57,46,37,82,74,64,29.90,29.76,12,2,57,0.00
2013-12-22,64,56,52,58,52,49,91,87,79,29.91,29.74,28,5,57,0.67
2013-12-23,53,42,26,50,38,22,91,86,79,30.02,29.77,19,6,57,0.51
2013-12-24,30,23,14,23,16,7,85,77,66,30.17,29.98,20,6,57,0.00
2013-12-25,36,22,10,19,12,6,98,66,47,30.18,30.03,21,8,57,0.00
2013-12-26,38,29,21,26,18,11,71,62,47,30.12,29.98,17,6,17,0.00
2013-12-27,46,33,22,27,19,15,78,57,37,30.20,30.10,17,5,17,0.00
2013-12-28,49,37,26,28,22,16,69,54,40,30.14,29.94,15,4,15,0.02
2013-12-29,43,38,36,40,35,27,91,87,66,29.94,29.52,18,4,18,1.32
2013-12-30,38,32,0,34,28,23,88,83,79,29.92,29.72,10,4,10,0.00
2013-12-31,33,28,24,25,20,17,85,73,61,30.07,29.87,19,5,19,0.00
2014-1-1,50,33,22,31,22,17,84,65,44,30.11,29.86,17,4,17,0.00
2014-1-2,34,30,19,30,24,14,89,78,63,29.87,29.44,17,4,17,0.12